createdAt,value
2024-03-26T00:00:21.195Z,96244.1
2024-03-26T00:05:56.600Z,96239.5
2024-03-26T00:11:31.795Z,96243.2
2024-03-26T00:17:07.120Z,96237.2
2024-03-26T00:22:42.284Z,96235
2024-03-26T00:28:17.341Z,96229.9
2024-03-26T00:33:52.351Z,96227.4
2024-03-26T00:39:27.800Z,96224.6
2024-03-26T00:45:08.507Z,96214.5
2024-03-26T00:50:45.099Z,96210.8
2024-03-26T00:56:20.442Z,96210.8
2024-03-26T01:01:55.289Z,96208.1
2024-03-26T01:07:31.937Z,96198.3
2024-03-26T01:13:06.747Z,96194.6
2024-03-26T01:18:41.747Z,96195.7
2024-03-26T01:24:16.885Z,96186.4
2024-03-26T01:29:52.059Z,96175.7
2024-03-26T01:35:27.018Z,96171.5
2024-03-26T01:41:02.138Z,96161.9
2024-03-26T01:46:37.293Z,96155
2024-03-26T01:52:12.267Z,96145.5
2024-03-26T01:57:47.136Z,96143.2
2024-03-26T02:03:22.727Z,96137.1
2024-03-26T02:08:57.793Z,96132.2
2024-03-26T02:14:33.255Z,96127.6
2024-03-26T02:20:09.244Z,96116.1
2024-03-26T02:25:44.787Z,96109.6
2024-03-26T02:31:20.188Z,96105
2024-03-26T02:36:55.669Z,96090.6
2024-03-26T02:42:30.884Z,96093.5
2024-03-26T02:48:06.002Z,96094.8
2024-03-26T02:53:41.487Z,96097.9
2024-03-26T02:59:16.488Z,96105.1
2024-03-26T03:04:52.135Z,96106.6
2024-03-26T03:10:27.426Z,96101.3
2024-03-26T03:16:02.282Z,96102.9
2024-03-26T03:21:37.710Z,96102.8
2024-03-26T03:27:12.656Z,96102.6
2024-03-26T03:32:48.363Z,96104.6
2024-03-26T03:38:23.920Z,96112.4
2024-03-26T03:43:59.191Z,96126.4
2024-03-26T03:49:33.985Z,96129.7
2024-03-26T03:55:09.009Z,96134
2024-03-26T04:00:44.259Z,96137.5
2024-03-26T04:06:19.209Z,96138.4
2024-03-26T04:11:56.266Z,96128.3
2024-03-26T04:17:31.868Z,96127.5
2024-03-26T04:23:06.995Z,96123.3
2024-03-26T04:28:42.465Z,96116.2
2024-03-26T04:34:17.671Z,96125.5
2024-03-26T04:39:52.647Z,96124.8
2024-03-26T04:45:27.464Z,96126
2024-03-26T04:51:02.577Z,96132.1
2024-03-26T04:56:37.547Z,96132.4
2024-03-26T05:02:12.983Z,96132.3
2024-03-26T05:07:47.954Z,96136.4
2024-03-26T05:13:23.030Z,96142.7
2024-03-26T05:18:58.274Z,96141.5
2024-03-26T05:24:33.261Z,96142.5
2024-03-26T05:30:08.087Z,96147.9
2024-03-26T05:35:43.219Z,96151.9
2024-03-26T05:41:19.107Z,96156.1
2024-03-26T05:46:54.318Z,96158.6
2024-03-26T05:52:29.723Z,96158.2
2024-03-26T05:58:05.540Z,96156.9
2024-03-26T06:03:40.924Z,96152.1
2024-03-26T06:09:15.972Z,96167.2
2024-03-26T06:14:51.343Z,96169.6
2024-03-26T06:20:27.587Z,96180.1
2024-03-26T06:26:03.074Z,96186
2024-03-26T06:31:38.836Z,96195.3
2024-03-26T06:37:13.872Z,96194
2024-03-26T06:42:50.394Z,96193.1
2024-03-26T06:48:25.793Z,96197.5
2024-03-26T06:54:02.178Z,96186.6
2024-03-26T06:59:37.095Z,96184.1
2024-03-26T07:05:12.538Z,96175.6
2024-03-26T07:10:47.885Z,96190.6
2024-03-26T07:16:23.197Z,96188.5
2024-03-26T07:21:58.228Z,96203.6
2024-03-26T07:27:33.078Z,96206.3
2024-03-26T07:33:08.272Z,96203.8
2024-03-26T07:38:43.575Z,96215
2024-03-26T07:44:18.258Z,96224.8
2024-03-26T07:49:53.740Z,96221
2024-03-26T07:55:29.650Z,96204.3
2024-03-26T08:01:04.913Z,96194.9
2024-03-26T08:06:41.231Z,96207.3
2024-03-26T08:12:17.558Z,96225
2024-03-26T08:17:53.243Z,96228.2
2024-03-26T08:23:29.154Z,96240.1
2024-03-26T08:29:04.618Z,96255.1
2024-03-26T08:34:40.226Z,96272.6
2024-03-26T08:40:16.140Z,96280.6
2024-03-26T08:45:51.222Z,96291.5
2024-03-26T08:51:26.142Z,96308.1
2024-03-26T08:57:01.916Z,96304.1
2024-03-26T09:02:37.103Z,96307.7
2024-03-26T09:08:11.819Z,96314.5
2024-03-26T09:13:47.307Z,96311.1
2024-03-26T09:19:23.064Z,96299.7
2024-03-26T09:24:58.141Z,96297.1
2024-03-26T09:30:33.614Z,96298.9
2024-03-26T09:36:08.972Z,96302.2
2024-03-26T09:41:43.872Z,96311.1
2024-03-26T09:47:19.309Z,96314.5
2024-03-26T09:52:54.913Z,96322.2
2024-03-26T09:58:30.143Z,96327.1
2024-03-26T10:04:06.227Z,96339.1
2024-03-26T10:09:41.475Z,96343.9
2024-03-26T10:15:16.255Z,96337.2
2024-03-26T10:20:51.713Z,96326.1
2024-03-26T10:26:28.470Z,96337.6
2024-03-26T10:32:03.712Z,96336.2
2024-03-26T10:37:39.058Z,96318.5
2024-03-26T10:43:14.439Z,96324.6
2024-03-26T10:49:02.268Z,96329.3
2024-03-26T10:54:37.903Z,96320.4
2024-03-26T11:00:13.318Z,96295.9
2024-03-26T11:05:48.806Z,96292.9
2024-03-26T11:11:23.838Z,96279.1
2024-03-26T11:16:59.182Z,96262.7
2024-03-26T11:22:34.583Z,96259
2024-03-26T11:28:09.916Z,96259.4
2024-03-26T11:33:45.623Z,96264.9
2024-03-26T11:39:20.779Z,96255.2
2024-03-26T11:44:56.231Z,96263.8
2024-03-26T11:50:31.665Z,96263.8
2024-03-26T11:56:06.793Z,96264.5
2024-03-26T12:01:42.952Z,96270.2
2024-03-26T12:07:18.602Z,96277
2024-03-26T12:12:53.322Z,96276.1
2024-03-26T12:18:28.833Z,96274.2
2024-03-26T12:24:03.867Z,96264.1
2024-03-26T12:29:39.385Z,96256.1
2024-03-26T12:35:14.821Z,96241.9
2024-03-26T12:40:50.510Z,96227.1
2024-03-26T12:46:25.951Z,96227.1
2024-03-26T12:52:01.653Z,96221.1
2024-03-26T12:57:36.961Z,96211.3
2024-03-26T13:03:11.850Z,96201.4
2024-03-26T13:08:46.721Z,96185.1
2024-03-26T13:14:22.115Z,96185.6
2024-03-26T13:19:58.937Z,96195.2
2024-03-26T13:25:34.257Z,96194.8
2024-03-26T13:31:09.668Z,96185.1
2024-03-26T13:36:45.302Z,96178.3
2024-03-26T13:42:20.959Z,96182.4
2024-03-26T13:47:56.385Z,96176.7
2024-03-26T13:53:32.683Z,96177.6
2024-03-26T13:59:08.932Z,96182.2
2024-03-26T14:04:44.771Z,96173.5
2024-03-26T14:10:19.806Z,96169.8
2024-03-26T14:15:55.031Z,96173
2024-03-26T14:21:30.571Z,96175.8
2024-03-26T14:27:05.811Z,96174.9
2024-03-26T14:32:41.315Z,96176.3
2024-03-26T14:38:16.407Z,96163.4
2024-03-26T14:43:51.622Z,96151.4
2024-03-26T14:49:27.161Z,96143.7
2024-03-26T14:55:02.236Z,96149.1
2024-03-26T15:00:37.914Z,96161.7
2024-03-26T15:06:13.400Z,96164.5
2024-03-26T15:11:48.730Z,96148.2
2024-03-26T15:17:23.920Z,96141.8
2024-03-26T15:22:59.067Z,96146.6
2024-03-26T15:28:34.309Z,96147.4
2024-03-26T15:34:09.499Z,96146.5
2024-03-26T15:39:44.765Z,96154.6
2024-03-26T15:45:20.026Z,96155.8
2024-03-26T15:50:55.236Z,96142.4
2024-03-26T15:56:30.653Z,96137
2024-03-26T16:02:06.039Z,96139.4
2024-03-26T16:07:41.083Z,96135.7
2024-03-26T16:13:16.419Z,96136.8
2024-03-26T16:18:52.056Z,96130.2
2024-03-26T16:24:27.003Z,96133
2024-03-26T16:30:03.155Z,96124.8
2024-03-26T16:35:38.563Z,96130.6
2024-03-26T16:41:13.714Z,96121.9
2024-03-26T16:46:49.062Z,96121.2
2024-03-26T16:52:25.065Z,96118.3
2024-03-26T16:58:00.036Z,96120.3
2024-03-26T17:03:35.700Z,96134.9
2024-03-26T17:09:11.000Z,96142.3
2024-03-26T17:14:46.490Z,96146.5
2024-03-26T17:20:22.364Z,96140.9
2024-03-26T17:25:57.643Z,96146.7
2024-03-26T17:31:33.512Z,96145.3
2024-03-26T17:37:08.688Z,96145.2
2024-03-26T17:42:43.653Z,96135.7
2024-03-26T17:48:18.591Z,96128.4
2024-03-26T17:53:54.053Z,96139.6
2024-03-26T17:59:29.620Z,96132.2
2024-03-26T18:05:04.370Z,96138.1
2024-03-26T18:10:39.428Z,96140.8
2024-03-26T18:16:15.248Z,96146.2
2024-03-26T18:21:50.587Z,96148.5
2024-03-26T18:27:25.639Z,96146.1
2024-03-26T18:33:01.147Z,96140
2024-03-26T18:38:36.362Z,96136.7
2024-03-26T18:44:11.390Z,96134
2024-03-26T18:49:46.696Z,96144.1
2024-03-26T18:55:21.965Z,96152.5
2024-03-26T19:00:57.192Z,96152
2024-03-26T19:06:32.927Z,96149.6
2024-03-26T19:12:08.650Z,96145.7
2024-03-26T19:17:44.393Z,96147.4
2024-03-26T19:23:19.917Z,96146.4
2024-03-26T19:28:54.800Z,96146.7
2024-03-26T19:34:30.335Z,96147.5
2024-03-26T19:40:05.567Z,96155.3
2024-03-26T19:45:40.855Z,96158.2
2024-03-26T19:51:16.661Z,96156.8
2024-03-26T19:56:51.682Z,96159.7
2024-03-26T20:02:26.837Z,96158.8
2024-03-26T20:08:02.530Z,96154.8
2024-03-26T20:13:37.994Z,96161.2
2024-03-26T20:19:12.873Z,96167.3
2024-03-26T20:24:48.086Z,96170
2024-03-26T20:30:23.822Z,96176.5
2024-03-26T20:35:58.960Z,96191
2024-03-26T20:41:34.218Z,96207.9
2024-03-26T20:47:09.313Z,96279.1
2024-03-26T20:52:44.431Z,96283
2024-03-26T20:58:20.057Z,96288.4
2024-03-26T21:03:55.195Z,96278.9
2024-03-26T21:09:30.434Z,96272.4
2024-03-26T21:15:29.010Z,96264.8
2024-03-26T21:21:05.833Z,96262.9
2024-03-26T21:26:40.858Z,96265.9
2024-03-26T21:32:15.911Z,96272.9
2024-03-26T21:37:51.155Z,96274.8
2024-03-26T21:43:26.085Z,96275.8
2024-03-26T21:49:01.370Z,96259.8
2024-03-26T21:54:36.837Z,96243.9
2024-03-26T22:00:12.134Z,96211.4
2024-03-26T22:05:47.301Z,96230.1
2024-03-26T22:11:22.339Z,96225.8
2024-03-26T22:16:57.497Z,96227.1
2024-03-26T22:22:32.439Z,96234.4
2024-03-26T22:28:07.625Z,96231.7
2024-03-26T22:33:42.362Z,96223.9
2024-03-26T22:39:17.791Z,96224.2
2024-03-26T22:44:53.031Z,96223.1
2024-03-26T22:50:27.807Z,96213.2
2024-03-26T22:56:02.912Z,96219.4
2024-03-26T23:01:38.132Z,96213.9
2024-03-26T23:07:13.406Z,96200.9
2024-03-26T23:12:48.486Z,96198.8
2024-03-26T23:18:23.746Z,96191
2024-03-26T23:23:59.102Z,96193.6
2024-03-26T23:29:34.437Z,96185.4
2024-03-26T23:35:09.292Z,96180.8
2024-03-26T23:40:44.947Z,96182
2024-03-26T23:46:20.278Z,96182.6
2024-03-26T23:51:55.343Z,96177.6
2024-03-26T23:57:30.693Z,96178.4
